createdAt,value
2022-08-26T00:01:51.838Z,1.77
2022-08-26T00:04:19.614Z,1.60
2022-08-26T00:06:46.942Z,1.30
2022-08-26T00:09:16.057Z,1.53
2022-08-26T00:11:44.471Z,1.13
2022-08-26T00:14:12.259Z,2.10
2022-08-26T00:16:41.046Z,2.40
2022-08-26T00:19:15.613Z,2.33
2022-08-26T00:21:43.009Z,1.80
2022-08-26T00:24:10.373Z,1.13
2022-08-26T00:26:37.545Z,1.00
2022-08-26T00:29:05.171Z,1.10
2022-08-26T00:31:32.612Z,1.23
2022-08-26T00:33:59.819Z,1.10
2022-08-26T00:36:29.565Z,1.60
2022-08-26T00:38:56.957Z,1.00
2022-08-26T00:41:24.066Z,2.00
2022-08-26T00:43:51.717Z,1.00
2022-08-26T00:46:24.163Z,1.80
2022-08-26T00:48:53.599Z,1.07
2022-08-26T00:51:23.008Z,1.67
2022-08-26T00:53:55.005Z,1.40
2022-08-26T00:56:42.787Z,2.90
2022-08-26T00:59:11.337Z,1.30
2022-08-26T01:01:39.166Z,1.97
2022-08-26T01:04:06.654Z,1.43
2022-08-26T01:06:33.778Z,1.70
2022-08-26T01:09:01.332Z,1.90
2022-08-26T01:11:28.669Z,1.80
2022-08-26T01:13:56.859Z,1.40
2022-08-26T01:16:25.677Z,1.73
2022-08-26T01:18:55.441Z,2.00
2022-08-26T01:21:40.768Z,1.77
2022-08-26T01:24:08.639Z,1.83
2022-08-26T01:26:42.479Z,1.83
2022-08-26T01:29:12.835Z,2.23
2022-08-26T01:31:41.995Z,1.30
2022-08-26T01:34:12.804Z,2.13
2022-08-26T01:36:40.158Z,2.23
2022-08-26T01:39:08.849Z,1.73
2022-08-26T01:41:36.486Z,2.00
2022-08-26T01:44:05.844Z,1.90
2022-08-26T01:46:37.275Z,1.23
2022-08-26T01:49:06.562Z,1.97
2022-08-26T01:51:38.863Z,1.33
2022-08-26T01:54:07.897Z,2.97
2022-08-26T01:56:39.415Z,3.20
2022-08-26T01:59:09.358Z,2.83
2022-08-26T02:01:37.905Z,2.03
2022-08-26T02:04:16.807Z,1.57
2022-08-26T02:06:44.305Z,2.10
2022-08-26T02:09:12.195Z,2.20
2022-08-26T02:11:41.037Z,1.90
2022-08-26T02:14:17.634Z,2.00
2022-08-26T02:16:46.883Z,1.60
2022-08-26T02:19:17.252Z,1.87
2022-08-26T02:21:45.087Z,1.57
2022-08-26T02:24:15.469Z,1.97
2022-08-26T02:26:43.901Z,2.50
2022-08-26T02:29:31.623Z,1.10
2022-08-26T02:31:58.758Z,1.30
2022-08-26T02:34:31.897Z,2.73
2022-08-26T02:37:03.281Z,1.80
2022-08-26T02:39:31.946Z,1.27
2022-08-26T02:41:59.535Z,1.17
2022-08-26T02:44:27.213Z,2.30
2022-08-26T02:46:54.843Z,1.40
2022-08-26T02:49:23.699Z,1.50
2022-08-26T02:51:51.008Z,2.03
2022-08-26T02:54:21.221Z,2.70
2022-08-26T02:56:48.362Z,2.17
2022-08-26T02:59:15.521Z,1.80
2022-08-26T03:01:44.307Z,1.10
2022-08-26T03:04:12.709Z,1.67
2022-08-26T03:06:41.641Z,1.57
2022-08-26T03:09:09.625Z,1.30
2022-08-26T03:11:37.769Z,2.50
2022-08-26T03:14:05.251Z,1.30
2022-08-26T03:16:34.123Z,1.83
2022-08-26T03:19:02.772Z,2.00
2022-08-26T03:21:30.411Z,1.33
2022-08-26T03:23:58.541Z,1.73
2022-08-26T03:26:26.092Z,2.67
2022-08-26T03:29:12.014Z,1.93
2022-08-26T03:31:39.421Z,2.60
2022-08-26T03:34:07.171Z,3.80
2022-08-26T03:36:35.041Z,2.17
2022-08-26T03:39:02.350Z,1.80
2022-08-26T03:41:32.621Z,2.10
2022-08-26T03:44:01.865Z,2.57
2022-08-26T03:46:29.365Z,2.13
2022-08-26T03:48:57.774Z,1.95
2022-08-26T03:51:25.897Z,2.23
2022-08-26T03:53:53.528Z,2.70
2022-08-26T03:56:20.669Z,1.90
2022-08-26T03:58:47.776Z,2.33
2022-08-26T04:01:18.092Z,2.40
2022-08-26T04:04:00.069Z,2.80
2022-08-26T04:06:27.882Z,1.77
2022-08-26T04:08:59.966Z,2.40
2022-08-26T04:11:34.125Z,1.97
2022-08-26T04:14:02.761Z,2.33
2022-08-26T04:16:30.350Z,2.53
2022-08-26T04:18:58.114Z,2.10
2022-08-26T04:21:25.789Z,3.50
2022-08-26T04:23:54.304Z,2.30
2022-08-26T04:26:22.647Z,2.30
2022-08-26T04:28:51.678Z,3.87
2022-08-26T04:31:19.103Z,2.37
2022-08-26T04:33:47.653Z,1.60
2022-08-26T04:36:17.467Z,2.03
2022-08-26T04:38:46.979Z,2.30
2022-08-26T04:41:15.455Z,2.33
2022-08-26T04:43:44.039Z,2.13
2022-08-26T04:46:13.030Z,2.10
2022-08-26T04:48:41.307Z,2.40
2022-08-26T04:51:09.601Z,3.77
2022-08-26T04:53:37.000Z,2.00
2022-08-26T04:56:04.453Z,2.20
2022-08-26T04:58:31.872Z,1.90
2022-08-26T05:00:59.003Z,1.40
2022-08-26T05:03:30.525Z,2.87
2022-08-26T05:05:58.905Z,1.70
2022-08-26T05:08:26.412Z,2.30
2022-08-26T05:10:55.932Z,2.70
2022-08-26T05:13:24.784Z,2.13
2022-08-26T05:15:52.331Z,2.17
2022-08-26T05:18:21.300Z,2.27
2022-08-26T05:20:51.776Z,2.40
2022-08-26T05:23:22.973Z,2.07
2022-08-26T05:25:50.730Z,2.37
2022-08-26T05:28:19.574Z,2.27
2022-08-26T05:30:47.211Z,2.37
2022-08-26T05:33:14.638Z,2.03
2022-08-26T05:35:42.272Z,2.33
2022-08-26T05:38:12.847Z,2.17
2022-08-26T05:40:41.923Z,2.37
2022-08-26T05:43:13.404Z,2.03
2022-08-26T05:45:46.125Z,2.27
2022-08-26T05:48:14.157Z,1.60
2022-08-26T05:50:42.370Z,2.70
2022-08-26T05:53:10.973Z,2.57
2022-08-26T05:55:48.407Z,2.93
2022-08-26T05:58:17.471Z,1.70
2022-08-26T06:00:45.225Z,2.30
2022-08-26T06:03:12.371Z,2.40
2022-08-26T06:05:42.708Z,2.50
2022-08-26T06:08:13.571Z,2.23
2022-08-26T06:10:51.492Z,2.13
2022-08-26T06:13:20.413Z,2.20
2022-08-26T06:15:48.788Z,2.87
2022-08-26T06:18:17.145Z,2.60
2022-08-26T06:20:56.818Z,3.07
2022-08-26T06:23:44.202Z,2.43
2022-08-26T06:26:11.426Z,2.27
2022-08-26T06:28:38.861Z,2.43
2022-08-26T06:31:06.325Z,2.30
2022-08-26T06:33:33.510Z,1.97
2022-08-26T06:36:01.163Z,2.87
2022-08-26T06:38:28.438Z,3.10
2022-08-26T06:40:55.543Z,2.70
2022-08-26T06:43:23.848Z,2.90
2022-08-26T06:45:51.696Z,3.33
2022-08-26T06:48:21.537Z,3.10
2022-08-26T06:50:49.979Z,5.20
2022-08-26T06:53:17.244Z,1.97
2022-08-26T06:55:46.883Z,2.77
2022-08-26T06:58:18.999Z,2.90
2022-08-26T07:00:47.483Z,3.37
2022-08-26T07:03:14.825Z,2.63
2022-08-26T07:05:41.971Z,3.53
2022-08-26T07:08:09.124Z,2.50
2022-08-26T07:10:36.771Z,3.10
2022-08-26T07:13:04.017Z,2.77
2022-08-26T07:15:35.740Z,2.90
2022-08-26T07:18:03.191Z,2.97
2022-08-26T07:20:30.325Z,2.83
2022-08-26T07:22:58.909Z,2.67
2022-08-26T07:25:26.033Z,2.73
2022-08-26T07:27:54.022Z,3.03
2022-08-26T07:30:21.731Z,2.90
2022-08-26T07:32:49.679Z,2.37
2022-08-26T07:35:16.939Z,1.60
2022-08-26T07:37:44.879Z,2.50
2022-08-26T07:40:12.127Z,2.80
2022-08-26T07:42:39.993Z,2.60
2022-08-26T07:45:07.374Z,3.07
2022-08-26T07:47:34.546Z,4.33
2022-08-26T07:50:01.738Z,2.40
2022-08-26T07:52:30.453Z,2.30
2022-08-26T07:54:58.527Z,2.00
2022-08-26T07:57:26.245Z,2.37
2022-08-26T07:59:54.067Z,2.43
2022-08-26T08:02:22.625Z,2.73
2022-08-26T08:04:49.937Z,2.70
2022-08-26T08:07:17.257Z,2.30
2022-08-26T08:09:44.338Z,2.30
2022-08-26T08:12:14.231Z,2.30
2022-08-26T08:14:45.118Z,2.27
2022-08-26T08:19:44.762Z,2.60
2022-08-26T08:22:17.288Z,3.50
2022-08-26T08:24:44.788Z,1.93
2022-08-26T08:27:11.891Z,1.83
2022-08-26T08:29:39.238Z,3.10
2022-08-26T08:32:06.696Z,2.43
2022-08-26T08:37:10.984Z,3.57
2022-08-26T08:39:38.155Z,2.47
2022-08-26T08:42:24.802Z,1.97
2022-08-26T08:44:53.106Z,2.40
2022-08-26T08:47:35.450Z,4.00
2022-08-26T08:50:17.819Z,3.90
2022-08-26T08:52:46.486Z,2.43
2022-08-26T08:55:18.011Z,2.57
2022-08-26T08:58:02.513Z,2.83
2022-08-26T09:00:32.226Z,2.90
2022-08-26T09:03:04.428Z,2.90
2022-08-26T09:05:36.795Z,2.80
2022-08-26T09:08:07.227Z,3.00
2022-08-26T09:10:44.319Z,2.43
2022-08-26T09:13:16.386Z,2.90
2022-08-26T09:15:56.451Z,2.53
2022-08-26T09:18:32.703Z,2.80
2022-08-26T09:21:03.307Z,2.53
2022-08-26T09:23:31.898Z,3.03
2022-08-26T09:26:00.686Z,2.07
2022-08-26T09:28:28.911Z,3.10
2022-08-26T09:31:15.710Z,1.93
2022-08-26T09:33:43.333Z,2.77
2022-08-26T09:36:22.789Z,2.50
2022-08-26T09:38:52.553Z,2.33
2022-08-26T09:41:21.751Z,2.67
2022-08-26T09:44:07.804Z,2.33
2022-08-26T09:46:45.003Z,1.90
2022-08-26T09:49:26.828Z,2.80
2022-08-26T09:52:12.414Z,2.47
2022-08-26T09:54:39.954Z,2.03
2022-08-26T09:57:17.216Z,2.67
2022-08-26T09:59:44.688Z,2.73
2022-08-26T10:02:25.008Z,2.60
2022-08-26T10:04:54.281Z,2.20
2022-08-26T10:07:41.775Z,2.70
2022-08-26T10:10:11.370Z,2.47
2022-08-26T10:12:42.053Z,2.00
2022-08-26T10:15:10.643Z,2.30
2022-08-26T10:17:41.487Z,3.10
2022-08-26T10:20:22.905Z,1.90
2022-08-26T10:22:58.857Z,2.83
2022-08-26T10:25:29.618Z,2.70
2022-08-26T10:28:00.320Z,2.60
2022-08-26T10:30:35.277Z,3.80
2022-08-26T10:33:05.506Z,2.70
2022-08-26T10:35:34.407Z,2.30
2022-08-26T10:38:04.290Z,2.20
2022-08-26T10:40:38.390Z,2.03
2022-08-26T10:43:10.919Z,2.07
2022-08-26T10:45:43.571Z,2.60
2022-08-26T10:48:13.268Z,2.27
2022-08-26T10:50:42.213Z,2.70
2022-08-26T10:53:18.529Z,2.40
2022-08-26T10:55:59.029Z,2.80
2022-08-26T10:58:42.506Z,3.30
2022-08-26T11:01:43.745Z,2.40
2022-08-26T11:04:38.295Z,3.17
2022-08-26T11:07:29.779Z,2.40
2022-08-26T11:10:03.359Z,2.20
2022-08-26T11:12:37.349Z,2.07
2022-08-26T11:15:09.488Z,2.23
2022-08-26T11:17:45.726Z,2.23
2022-08-26T11:20:32.020Z,2.53
2022-08-26T11:23:14.498Z,2.37
2022-08-26T11:25:57.420Z,2.17
2022-08-26T11:28:35.414Z,2.60
2022-08-26T11:31:03.428Z,2.70
2022-08-26T11:33:52.272Z,2.47
2022-08-26T11:36:35.674Z,2.22
2022-08-26T11:39:05.654Z,2.20
2022-08-26T11:41:33.800Z,2.60
2022-08-26T11:44:02.292Z,2.97
2022-08-26T11:46:35.669Z,1.80
2022-08-26T11:49:05.815Z,2.78
2022-08-26T11:51:37.009Z,2.10
2022-08-26T11:54:17.226Z,2.33
2022-08-26T11:56:57.769Z,2.57
2022-08-26T11:59:27.516Z,2.13
2022-08-26T12:01:55.296Z,2.20
2022-08-26T12:04:27.361Z,2.90
2022-08-26T12:06:55.072Z,2.30
2022-08-26T12:09:24.000Z,1.97
2022-08-26T12:11:52.659Z,2.80
2022-08-26T12:14:27.330Z,2.30
2022-08-26T12:16:55.159Z,2.77
2022-08-26T12:19:33.761Z,3.27
2022-08-26T12:22:07.270Z,2.60
2022-08-26T12:24:34.359Z,3.67
2022-08-26T12:27:15.427Z,3.07
2022-08-26T12:29:42.545Z,2.43
2022-08-26T12:32:17.678Z,3.20
2022-08-26T12:34:48.890Z,3.00
2022-08-26T12:37:16.199Z,2.40
2022-08-26T12:39:46.202Z,2.00
2022-08-26T12:42:13.361Z,2.13
2022-08-26T12:44:53.621Z,2.23
2022-08-26T12:47:39.096Z,1.60
2022-08-26T12:50:19.407Z,1.57
2022-08-26T12:53:12.696Z,3.30
2022-08-26T12:55:42.135Z,1.83
2022-08-26T12:58:13.741Z,2.30
2022-08-26T13:00:42.140Z,1.93
2022-08-26T13:03:47.784Z,2.37
2022-08-26T13:06:16.040Z,2.50
2022-08-26T13:08:51.395Z,2.23
2022-08-26T13:11:23.601Z,2.60
2022-08-26T13:14:01.017Z,2.93
2022-08-26T13:16:29.111Z,1.50
2022-08-26T13:19:10.463Z,3.83
2022-08-26T13:21:48.022Z,2.70
2022-08-26T13:24:20.402Z,2.30
2022-08-26T13:26:49.090Z,2.20
2022-08-26T13:29:16.931Z,3.00
2022-08-26T13:31:44.916Z,2.87
2022-08-26T13:34:14.156Z,2.23
2022-08-26T13:36:43.851Z,3.60
2022-08-26T13:39:11.215Z,2.50
2022-08-26T13:41:38.386Z,2.70
2022-08-26T13:44:06.076Z,2.30
2022-08-26T13:46:33.421Z,3.40
2022-08-26T13:49:00.653Z,3.50
2022-08-26T13:51:28.407Z,3.27
2022-08-26T13:53:55.561Z,2.67
2022-08-26T13:56:23.026Z,2.40
2022-08-26T13:58:50.246Z,3.00
2022-08-26T14:01:17.786Z,2.50
2022-08-26T14:03:45.012Z,2.57
2022-08-26T14:06:12.280Z,2.73
2022-08-26T14:08:39.736Z,2.83
2022-08-26T14:11:07.810Z,4.87
2022-08-26T14:13:34.990Z,2.97
2022-08-26T14:16:03.323Z,2.83
2022-08-26T14:18:37.339Z,2.77
2022-08-26T14:21:07.642Z,2.83
2022-08-26T14:23:34.811Z,2.27
2022-08-26T14:26:07.957Z,2.53
2022-08-26T14:28:35.584Z,3.43
2022-08-26T14:31:03.396Z,2.43
2022-08-26T14:33:32.665Z,2.20
2022-08-26T14:36:20.398Z,2.43
2022-08-26T14:38:47.657Z,2.30
2022-08-26T14:41:19.087Z,2.00
2022-08-26T14:43:49.310Z,3.70
2022-08-26T14:46:17.168Z,2.70
2022-08-26T14:48:44.725Z,2.27
2022-08-26T14:51:11.870Z,2.70
2022-08-26T14:53:57.700Z,2.87
2022-08-26T14:56:25.112Z,2.33
2022-08-26T14:58:52.246Z,2.07
2022-08-26T15:01:19.426Z,2.47
2022-08-26T15:03:46.564Z,2.20
2022-08-26T15:06:15.134Z,1.73
2022-08-26T15:08:42.224Z,1.90
2022-08-26T15:11:10.262Z,2.60
2022-08-26T15:13:37.354Z,2.27
2022-08-26T15:16:04.604Z,2.47
2022-08-26T15:18:31.725Z,1.73
2022-08-26T15:20:58.838Z,1.67
2022-08-26T15:23:26.150Z,2.23
2022-08-26T15:25:53.241Z,2.67
2022-08-26T15:28:20.403Z,2.00
2022-08-26T15:30:50.961Z,1.87
2022-08-26T15:33:18.375Z,1.80
2022-08-26T15:35:45.484Z,1.77
2022-08-26T15:38:12.882Z,1.97
2022-08-26T15:40:40.096Z,2.83
2022-08-26T15:43:25.761Z,2.30
2022-08-26T15:45:54.603Z,1.97
2022-08-26T15:48:22.008Z,1.70
2022-08-26T15:50:53.717Z,2.43
2022-08-26T15:53:21.944Z,2.03
2022-08-26T15:55:49.246Z,2.10
2022-08-26T15:58:17.165Z,2.23
2022-08-26T16:00:44.939Z,1.50
2022-08-26T16:03:12.105Z,1.90
2022-08-26T16:05:39.932Z,1.80
2022-08-26T16:08:08.269Z,1.90
2022-08-26T16:10:36.776Z,2.17
2022-08-26T16:13:04.430Z,1.33
2022-08-26T16:15:34.991Z,1.87
2022-08-26T16:18:02.657Z,1.47
2022-08-26T16:20:31.270Z,1.90
2022-08-26T16:22:58.508Z,1.50
2022-08-26T16:25:26.149Z,2.10
2022-08-26T16:27:53.639Z,2.63
2022-08-26T16:30:21.154Z,2.13
2022-08-26T16:32:48.924Z,3.07
2022-08-26T16:35:16.931Z,2.40
2022-08-26T16:37:44.081Z,3.17
2022-08-26T16:40:11.545Z,1.63
2022-08-26T16:42:38.729Z,2.33
2022-08-26T16:45:06.797Z,1.53
2022-08-26T16:47:37.148Z,1.73
2022-08-26T16:50:06.535Z,1.87
2022-08-26T16:52:34.053Z,1.70
2022-08-26T16:55:01.165Z,1.67
2022-08-26T16:57:28.317Z,2.40
2022-08-26T16:59:55.458Z,1.40
2022-08-26T17:02:22.572Z,2.17
2022-08-26T17:04:51.611Z,1.00
2022-08-26T17:07:18.716Z,2.63
2022-08-26T17:09:45.813Z,2.50
2022-08-26T17:12:12.924Z,1.87
2022-08-26T17:14:40.053Z,1.80
2022-08-26T17:17:07.164Z,1.87
2022-08-26T17:19:36.380Z,1.90
2022-08-26T17:22:09.136Z,2.00
2022-08-26T17:24:37.281Z,2.00
2022-08-26T17:27:04.806Z,2.00
2022-08-26T17:29:31.892Z,1.73
2022-08-26T17:31:58.999Z,2.30
2022-08-26T17:34:26.126Z,2.07
2022-08-26T17:36:53.225Z,2.07
2022-08-26T17:39:20.537Z,1.83
2022-08-26T17:41:47.671Z,1.50
2022-08-26T17:44:14.776Z,2.77
2022-08-26T17:46:41.981Z,2.33
2022-08-26T17:49:09.936Z,2.20
2022-08-26T17:51:37.147Z,2.70
2022-08-26T17:54:04.468Z,3.20
2022-08-26T17:56:31.791Z,3.87
2022-08-26T17:59:02.437Z,3.23
2022-08-26T18:01:31.639Z,3.97
2022-08-26T18:04:00.588Z,4.83
2022-08-26T18:06:28.169Z,5.40
2022-08-26T18:08:55.415Z,5.40
2022-08-26T18:11:24.418Z,6.40
2022-08-26T18:13:51.594Z,5.50
2022-08-26T18:16:19.673Z,5.53
2022-08-26T18:18:47.622Z,6.43
2022-08-26T18:21:16.389Z,7.30
2022-08-26T18:23:43.813Z,5.27
2022-08-26T18:26:15.604Z,5.87
2022-08-26T18:28:42.685Z,6.27
2022-08-26T18:31:12.770Z,7.90
2022-08-26T18:33:41.176Z,6.17
2022-08-26T18:36:08.538Z,6.30
2022-08-26T18:38:35.652Z,7.33
2022-08-26T18:41:04.529Z,6.90
2022-08-26T18:43:31.895Z,6.17
2022-08-26T18:46:02.892Z,7.03
2022-08-26T18:48:30.008Z,5.60
2022-08-26T18:50:59.982Z,6.30
2022-08-26T18:53:28.157Z,6.00
2022-08-26T18:55:55.322Z,5.03
2022-08-26T18:58:22.454Z,4.60
2022-08-26T19:00:49.863Z,4.93
2022-08-26T19:03:18.871Z,4.90
2022-08-26T19:05:46.861Z,4.70
2022-08-26T19:08:14.088Z,4.40
2022-08-26T19:10:41.611Z,4.63
2022-08-26T19:13:10.352Z,3.70
2022-08-26T19:15:38.345Z,4.90
2022-08-26T19:18:06.020Z,6.90
2022-08-26T19:20:33.214Z,4.67
2022-08-26T19:23:05.769Z,4.50
2022-08-26T19:25:42.067Z,5.30
2022-08-26T19:28:09.364Z,5.03
2022-08-26T19:30:44.460Z,4.40
2022-08-26T19:33:13.213Z,3.80
2022-08-26T19:35:40.668Z,4.20
2022-08-26T19:38:08.220Z,4.10
2022-08-26T19:40:36.246Z,4.40
2022-08-26T19:43:03.763Z,5.20
2022-08-26T19:45:31.253Z,5.03
2022-08-26T19:47:58.711Z,4.27
2022-08-26T19:50:27.185Z,4.13
2022-08-26T19:52:54.666Z,3.77
2022-08-26T19:55:22.976Z,5.07
2022-08-26T19:57:52.266Z,4.40
2022-08-26T20:00:21.930Z,4.37
2022-08-26T20:02:49.060Z,4.33
2022-08-26T20:05:17.073Z,4.77
2022-08-26T20:07:44.243Z,5.60
2022-08-26T20:10:13.419Z,4.40
2022-08-26T20:12:41.639Z,4.67
2022-08-26T20:15:12.908Z,3.97
2022-08-26T20:17:40.675Z,4.93
2022-08-26T20:20:32.960Z,6.50
2022-08-26T20:23:00.917Z,5.20
2022-08-26T20:25:28.075Z,4.30
2022-08-26T20:27:55.211Z,5.20
2022-08-26T20:30:22.387Z,5.37
2022-08-26T20:32:49.509Z,4.00
2022-08-26T20:35:16.714Z,4.70
2022-08-26T20:37:43.852Z,3.53
2022-08-26T20:40:12.535Z,5.30
2022-08-26T20:42:39.678Z,5.30
2022-08-26T20:45:07.426Z,3.73
2022-08-26T20:47:34.980Z,4.17
2022-08-26T20:50:02.945Z,5.70
2022-08-26T20:52:30.042Z,3.90
2022-08-26T20:54:57.169Z,6.23
2022-08-26T20:57:24.265Z,6.77
2022-08-26T20:59:51.409Z,5.40
2022-08-26T21:02:18.512Z,4.27
2022-08-26T21:04:45.680Z,6.80
2022-08-26T21:07:12.887Z,3.70
2022-08-26T21:09:39.984Z,5.40
2022-08-26T21:12:07.189Z,6.00
2022-08-26T21:14:34.341Z,7.20
2022-08-26T21:17:01.522Z,4.50
2022-08-26T21:19:28.669Z,5.30
2022-08-26T21:21:55.929Z,4.87
2022-08-26T21:24:23.071Z,5.00
2022-08-26T21:26:50.223Z,6.60
2022-08-26T21:29:17.394Z,6.47
2022-08-26T21:31:46.968Z,6.33
2022-08-26T21:34:15.385Z,5.20
2022-08-26T21:36:42.503Z,6.47
2022-08-26T21:39:11.926Z,4.83
2022-08-26T21:41:39.884Z,5.77
2022-08-26T21:44:07.044Z,5.57
2022-08-26T21:46:37.332Z,5.90
2022-08-26T21:49:07.341Z,5.20
2022-08-26T21:51:35.743Z,5.20
2022-08-26T21:54:06.567Z,6.37
2022-08-26T21:56:39.814Z,5.50
2022-08-26T21:59:07.731Z,6.83
2022-08-26T22:01:35.935Z,4.90
2022-08-26T22:04:06.515Z,5.17
2022-08-26T22:06:34.622Z,6.70
2022-08-26T22:09:01.834Z,6.70
2022-08-26T22:11:29.587Z,5.50
2022-08-26T22:13:56.903Z,5.80
2022-08-26T22:16:24.620Z,6.77
2022-08-26T22:18:53.348Z,5.77
2022-08-26T22:21:21.574Z,5.70
2022-08-26T22:23:48.690Z,5.23
2022-08-26T22:26:25.200Z,5.60
2022-08-26T22:28:55.637Z,5.50
2022-08-26T22:31:28.187Z,6.10
2022-08-26T22:34:06.721Z,5.73
2022-08-26T22:36:33.805Z,6.50
2022-08-26T22:39:01.602Z,6.40
2022-08-26T22:41:28.824Z,5.33
2022-08-26T22:44:02.526Z,4.93
2022-08-26T22:46:29.647Z,5.40
2022-08-26T22:48:56.829Z,7.50
2022-08-26T22:51:24.040Z,4.60
2022-08-26T22:53:51.220Z,5.33
2022-08-26T22:56:19.090Z,5.23
2022-08-26T22:58:46.254Z,5.50
2022-08-26T23:01:13.914Z,5.87
2022-08-26T23:03:41.315Z,5.03
2022-08-26T23:06:11.989Z,6.13
2022-08-26T23:08:40.367Z,5.23
2022-08-26T23:11:08.962Z,4.27
2022-08-26T23:13:36.511Z,5.60
2022-08-26T23:16:05.003Z,5.23
2022-08-26T23:18:32.262Z,3.87
2022-08-26T23:20:59.346Z,5.30
2022-08-26T23:23:27.513Z,3.90
2022-08-26T23:25:55.180Z,5.73
2022-08-26T23:28:22.626Z,3.93
2022-08-26T23:30:49.864Z,4.10
2022-08-26T23:33:17.113Z,3.17
2022-08-26T23:35:44.194Z,4.67
2022-08-26T23:38:14.113Z,5.57
2022-08-26T23:40:41.460Z,4.40
2022-08-26T23:43:11.312Z,3.77
2022-08-26T23:45:38.870Z,5.40
2022-08-26T23:48:06.575Z,3.93
2022-08-26T23:50:52.760Z,4.60
2022-08-26T23:53:21.917Z,5.43
2022-08-26T23:55:50.402Z,5.27
2022-08-26T23:58:18.358Z,3.40
